createdAt,value
2023-04-20T00:01:07.325Z,97.30
2023-04-20T00:03:35.373Z,97.40
2023-04-20T00:06:02.371Z,98.00
2023-04-20T00:11:15.682Z,97.30
2023-04-20T00:13:42.640Z,97.00
2023-04-20T00:16:09.480Z,97.10
2023-04-20T00:18:36.279Z,97.00
2023-04-20T00:21:03.263Z,97.20
2023-04-20T00:23:30.181Z,96.90
2023-04-20T00:25:57.039Z,96.30
2023-04-20T00:28:23.846Z,96.80
2023-04-20T00:30:50.676Z,96.50
2023-04-20T00:33:17.481Z,97.10
2023-04-20T00:35:44.273Z,97.10
2023-04-20T00:38:11.087Z,96.60
2023-04-20T00:40:37.913Z,96.90
2023-04-20T00:43:12.645Z,96.70
2023-04-20T00:45:39.593Z,97.20
2023-04-20T00:48:07.272Z,96.80
2023-04-20T00:50:35.073Z,97.20
2023-04-20T00:53:03.199Z,96.90
2023-04-20T00:55:31.172Z,96.40
2023-04-20T00:57:58.941Z,96.00
2023-04-20T01:00:26.527Z,96.80
2023-04-20T01:02:53.551Z,96.60
2023-04-20T01:05:21.650Z,95.70
2023-04-20T01:07:50.037Z,95.70
2023-04-20T01:10:17.067Z,96.40
2023-04-20T01:12:43.986Z,96.00
2023-04-20T01:15:11.055Z,95.60
2023-04-20T01:17:39.613Z,96.00
2023-04-20T01:20:14.855Z,96.10
2023-04-20T01:22:49.207Z,96.20
2023-04-20T01:25:17.145Z,95.60
2023-04-20T01:30:15.042Z,95.80
2023-04-20T01:32:42.008Z,95.80
2023-04-20T01:35:09.125Z,95.90
2023-04-20T01:37:36.425Z,96.00
2023-04-20T01:40:04.494Z,95.90
2023-04-20T01:42:31.268Z,96.20
2023-04-20T01:44:58.246Z,95.80
2023-04-20T01:47:25.001Z,95.00
2023-04-20T01:49:51.863Z,95.60
2023-04-20T01:52:18.718Z,95.60
2023-04-20T01:54:45.699Z,95.60
2023-04-20T01:57:12.544Z,95.50
2023-04-20T01:59:39.289Z,95.80
2023-04-20T02:02:06.496Z,95.70
2023-04-20T02:04:34.621Z,95.90
2023-04-20T02:07:01.462Z,95.80
2023-04-20T02:09:28.229Z,96.40
2023-04-20T02:11:55.006Z,97.20
2023-04-20T02:14:22.006Z,97.50
2023-04-20T02:16:48.862Z,97.90
2023-04-20T02:19:15.800Z,97.90
2023-04-20T02:21:43.222Z,98.40
2023-04-20T02:24:10.072Z,98.60
2023-04-20T02:26:36.803Z,98.30
2023-04-20T02:29:03.618Z,98.50
2023-04-20T02:31:30.486Z,98.90
2023-04-20T02:33:57.318Z,99.10
2023-04-20T02:36:24.083Z,98.70
2023-04-20T02:38:50.937Z,99.10
2023-04-20T02:41:18.830Z,99.50
2023-04-20T02:43:45.574Z,98.70
2023-04-20T02:46:12.534Z,99.10
2023-04-20T02:48:39.395Z,99.40
2023-04-20T02:51:06.273Z,99.30
2023-04-20T02:53:33.000Z,99.30
2023-04-20T02:55:59.905Z,99.20
2023-04-20T02:58:26.817Z,99.50
2023-04-20T03:01:02.148Z,99.60
2023-04-20T03:03:30.225Z,99.50
2023-04-20T03:05:57.099Z,99.60
2023-04-20T03:08:23.937Z,99.70
2023-04-20T03:10:50.936Z,100.00
2023-04-20T03:13:17.747Z,100.00
2023-04-20T03:15:44.584Z,99.70
2023-04-20T03:18:11.698Z,100.00
2023-04-20T03:20:38.476Z,100.00
2023-04-20T03:23:05.543Z,100.00
2023-04-20T03:25:32.360Z,100.00
2023-04-20T03:27:59.747Z,100.00
2023-04-20T03:30:26.749Z,100.00
2023-04-20T03:32:53.489Z,100.00
2023-04-20T03:35:20.951Z,100.00
2023-04-20T03:37:47.854Z,100.00
2023-04-20T03:40:14.968Z,100.00
2023-04-20T03:42:41.847Z,100.00
2023-04-20T03:45:09.082Z,100.00
2023-04-20T03:47:36.046Z,100.00
2023-04-20T03:50:03.226Z,100.00
2023-04-20T03:52:29.983Z,100.00
2023-04-20T03:54:56.759Z,100.00
2023-04-20T03:57:23.577Z,100.00
2023-04-20T03:59:50.333Z,100.00
2023-04-20T04:02:17.294Z,100.00
2023-04-20T04:04:45.438Z,100.00
2023-04-20T04:07:12.494Z,100.00
2023-04-20T04:09:39.237Z,100.00
2023-04-20T04:12:07.036Z,100.00
2023-04-20T04:14:34.923Z,100.00
2023-04-20T04:17:01.889Z,100.00
2023-04-20T04:19:28.704Z,100.00
2023-04-20T04:21:55.512Z,100.00
2023-04-20T04:24:22.607Z,100.00
2023-04-20T04:26:49.773Z,100.00
2023-04-20T04:29:16.836Z,100.00
2023-04-20T04:31:43.912Z,100.00
2023-04-20T04:34:10.791Z,100.00
2023-04-20T04:36:37.661Z,100.00
2023-04-20T04:39:04.584Z,100.00
2023-04-20T04:41:31.402Z,100.00
2023-04-20T04:43:59.508Z,100.00
2023-04-20T04:46:27.608Z,100.00
2023-04-20T04:48:54.687Z,100.00
2023-04-20T04:51:21.616Z,100.00
2023-04-20T04:53:49.652Z,100.00
2023-04-20T04:56:18.466Z,100.00
2023-04-20T04:58:48.330Z,100.00
2023-04-20T05:01:15.146Z,100.00
2023-04-20T05:03:42.062Z,100.00
2023-04-20T05:06:09.008Z,100.00
2023-04-20T05:08:35.845Z,100.00
2023-04-20T05:11:02.783Z,100.00
2023-04-20T05:13:29.829Z,100.00
2023-04-20T05:15:56.574Z,100.00
2023-04-20T05:18:23.344Z,100.00
2023-04-20T05:20:50.171Z,100.00
2023-04-20T05:23:16.973Z,100.00
2023-04-20T05:25:44.322Z,100.00
2023-04-20T05:28:11.201Z,100.00
2023-04-20T05:30:38.078Z,100.00
2023-04-20T05:33:04.928Z,100.00
2023-04-20T05:35:31.797Z,100.00
2023-04-20T05:38:00.414Z,100.00
2023-04-20T05:40:27.152Z,100.00
2023-04-20T05:42:54.422Z,100.00
2023-04-20T05:45:21.268Z,100.00
2023-04-20T05:47:55.950Z,100.00
2023-04-20T05:50:26.857Z,100.00
2023-04-20T05:52:54.187Z,100.00
2023-04-20T05:55:22.841Z,100.00
2023-04-20T05:57:51.983Z,100.00
2023-04-20T06:00:22.018Z,100.00
2023-04-20T06:02:50.199Z,100.00
2023-04-20T06:05:17.445Z,100.00
2023-04-20T06:07:44.249Z,100.00
2023-04-20T06:10:11.615Z,100.00
2023-04-20T06:12:38.440Z,100.00
2023-04-20T06:15:08.377Z,100.00
2023-04-20T06:17:37.359Z,100.00
2023-04-20T06:20:05.658Z,100.00
2023-04-20T06:22:32.487Z,100.00
2023-04-20T06:25:00.501Z,100.00
2023-04-20T06:27:27.283Z,100.00
2023-04-20T06:29:54.738Z,100.00
2023-04-20T06:32:21.500Z,100.00
2023-04-20T06:34:48.490Z,100.00
2023-04-20T06:37:15.410Z,100.00
2023-04-20T06:39:43.075Z,100.00
2023-04-20T06:42:10.860Z,100.00
2023-04-20T06:44:37.621Z,100.00
2023-04-20T06:47:04.475Z,100.00
2023-04-20T06:49:31.305Z,99.30
2023-04-20T06:51:58.148Z,99.80
2023-04-20T06:54:24.995Z,98.90
2023-04-20T06:56:51.792Z,99.70
2023-04-20T06:59:19.644Z,99.40
2023-04-20T07:01:46.617Z,99.40
2023-04-20T07:04:13.517Z,98.80
2023-04-20T07:06:40.366Z,99.10
2023-04-20T07:09:08.516Z,99.20
2023-04-20T07:11:35.414Z,98.90
2023-04-20T07:14:02.351Z,99.00
2023-04-20T07:16:29.169Z,99.40
2023-04-20T07:18:56.021Z,98.30
2023-04-20T07:21:22.798Z,98.70
2023-04-20T07:23:50.660Z,98.20
2023-04-20T07:26:17.622Z,98.40
2023-04-20T07:28:44.467Z,98.50
2023-04-20T07:31:11.220Z,98.50
2023-04-20T07:33:38.020Z,98.20
2023-04-20T07:36:06.242Z,98.20
2023-04-20T07:38:33.090Z,98.10
2023-04-20T07:40:59.866Z,97.80
2023-04-20T07:43:26.706Z,97.20
2023-04-20T07:45:53.859Z,97.10
2023-04-20T07:48:20.771Z,96.50
2023-04-20T07:50:50.626Z,96.50
2023-04-20T07:53:17.461Z,96.70
2023-04-20T07:55:44.241Z,96.30
2023-04-20T07:58:11.983Z,96.60
2023-04-20T08:00:38.752Z,95.60
2023-04-20T08:03:06.116Z,96.20
2023-04-20T08:05:33.263Z,95.10
2023-04-20T08:08:00.341Z,95.50
2023-04-20T08:10:27.162Z,95.50
2023-04-20T08:12:54.069Z,95.30
2023-04-20T08:15:21.038Z,94.20
2023-04-20T08:17:47.936Z,93.90
2023-04-20T08:20:14.756Z,94.10
2023-04-20T08:22:41.590Z,94.10
2023-04-20T08:25:08.685Z,93.60
2023-04-20T08:27:35.489Z,94.20
2023-04-20T08:30:04.227Z,94.40
2023-04-20T08:32:31.282Z,94.10
2023-04-20T08:34:58.051Z,93.90
2023-04-20T08:37:25.794Z,93.10
2023-04-20T08:39:52.576Z,93.10
2023-04-20T08:42:19.427Z,93.70
2023-04-20T08:44:46.278Z,93.30
2023-04-20T08:47:14.397Z,92.20
2023-04-20T08:49:41.775Z,93.30
2023-04-20T08:52:11.155Z,88.90
2023-04-20T08:54:45.909Z,86.50
2023-04-20T08:57:19.994Z,87.00
2023-04-20T08:59:46.723Z,86.10
2023-04-20T09:02:14.617Z,85.40
2023-04-20T09:04:41.684Z,85.50
2023-04-20T09:07:18.426Z,83.90
2023-04-20T09:09:59.030Z,81.30
2023-04-20T09:12:26.130Z,82.00
2023-04-20T09:14:53.725Z,82.30
2023-04-20T09:17:40.221Z,82.50
2023-04-20T09:20:08.480Z,81.40
2023-04-20T09:22:37.047Z,81.90
2023-04-20T09:25:17.102Z,79.90
2023-04-20T09:27:43.915Z,81.70
2023-04-20T09:30:11.171Z,77.40
2023-04-20T09:32:38.076Z,74.80
2023-04-20T09:35:06.740Z,73.80
2023-04-20T09:37:33.542Z,70.30
2023-04-20T09:40:00.846Z,68.00
2023-04-20T09:42:28.940Z,65.70
2023-04-20T09:44:57.003Z,67.20
2023-04-20T09:47:25.970Z,67.70
2023-04-20T09:49:54.632Z,65.90
2023-04-20T09:52:22.710Z,64.00
2023-04-20T09:54:51.596Z,65.10
2023-04-20T09:57:19.676Z,64.10
2023-04-20T09:59:47.446Z,62.40
2023-04-20T10:02:15.017Z,64.30
2023-04-20T10:04:56.057Z,63.20
2023-04-20T10:07:28.032Z,66.90
2023-04-20T10:10:09.830Z,65.30
2023-04-20T10:12:51.615Z,64.70
2023-04-20T10:15:19.154Z,62.70
2023-04-20T10:17:46.261Z,60.30
2023-04-20T10:20:27.986Z,57.70
2023-04-20T10:23:07.188Z,58.80
2023-04-20T10:25:34.103Z,60.50
2023-04-20T10:28:05.389Z,59.70
2023-04-20T10:30:33.206Z,62.90
2023-04-20T10:33:07.220Z,64.70
2023-04-20T10:35:51.960Z,64.60
2023-04-20T10:38:34.801Z,64.80
2023-04-20T10:41:12.783Z,65.50
2023-04-20T10:43:43.167Z,65.40
2023-04-20T10:46:24.521Z,66.60
2023-04-20T10:48:56.228Z,67.10
2023-04-20T10:51:24.025Z,69.00
2023-04-20T10:54:07.729Z,69.00
2023-04-20T10:56:39.183Z,69.80
2023-04-20T10:59:16.889Z,68.60
2023-04-20T11:01:45.517Z,69.80
2023-04-20T11:04:12.822Z,68.50
2023-04-20T11:06:48.072Z,69.40
2023-04-20T11:09:19.247Z,70.30
2023-04-20T11:11:47.113Z,70.20
2023-04-20T11:14:13.958Z,70.70
2023-04-20T11:16:52.142Z,70.90
2023-04-20T11:19:33.669Z,70.20
2023-04-20T11:22:02.700Z,66.50
2023-04-20T11:24:31.899Z,64.80
2023-04-20T11:26:59.045Z,64.40
2023-04-20T11:29:32.590Z,66.40
2023-04-20T11:32:01.664Z,64.90
2023-04-20T11:34:29.115Z,66.10
2023-04-20T11:36:56.856Z,61.00
2023-04-20T11:39:25.618Z,61.60
2023-04-20T11:41:52.960Z,59.10
2023-04-20T11:44:24.217Z,58.00
2023-04-20T11:46:53.248Z,57.40
2023-04-20T11:49:21.348Z,57.40
2023-04-20T11:51:48.286Z,60.20
2023-04-20T11:54:15.428Z,58.90
2023-04-20T11:56:42.685Z,57.20
2023-04-20T11:59:09.564Z,57.50
2023-04-20T12:01:37.584Z,59.20
2023-04-20T12:04:05.188Z,58.40
2023-04-20T12:06:32.664Z,56.40
2023-04-20T12:09:00.304Z,56.70
2023-04-20T12:11:27.783Z,57.00
2023-04-20T12:13:54.657Z,56.10
2023-04-20T12:16:21.768Z,57.70
2023-04-20T12:18:48.782Z,58.20
2023-04-20T12:21:15.582Z,57.30
2023-04-20T12:23:43.895Z,55.00
2023-04-20T12:26:11.273Z,55.40
2023-04-20T12:28:38.042Z,54.00
2023-04-20T12:31:05.047Z,54.00
2023-04-20T12:33:32.126Z,52.00
2023-04-20T12:35:58.883Z,52.40
2023-04-20T12:38:25.693Z,51.20
2023-04-20T12:40:52.401Z,50.40
2023-04-20T12:43:19.151Z,51.50
2023-04-20T12:45:46.094Z,51.00
2023-04-20T12:48:12.982Z,49.10
2023-04-20T12:50:39.914Z,49.10
2023-04-20T12:53:06.825Z,50.40
2023-04-20T12:55:33.803Z,49.00
2023-04-20T12:58:00.674Z,49.10
2023-04-20T13:00:27.446Z,48.50
2023-04-20T13:02:54.462Z,49.00
2023-04-20T13:05:21.579Z,48.50
2023-04-20T13:07:48.362Z,48.90
2023-04-20T13:10:15.214Z,48.30
2023-04-20T13:12:43.420Z,47.80
2023-04-20T13:15:10.849Z,46.50
2023-04-20T13:17:38.561Z,48.90
2023-04-20T13:20:06.380Z,47.70
2023-04-20T13:22:33.873Z,48.00
2023-04-20T13:25:01.494Z,46.50
2023-04-20T13:27:28.301Z,46.60
2023-04-20T13:29:55.260Z,47.70
2023-04-20T13:32:22.048Z,49.80
2023-04-20T13:34:48.759Z,49.30
2023-04-20T13:37:15.644Z,49.30
2023-04-20T13:39:42.971Z,49.10
2023-04-20T13:42:09.715Z,48.60
2023-04-20T13:44:36.444Z,48.50
2023-04-20T13:47:03.287Z,49.20
2023-04-20T13:49:30.281Z,50.60
2023-04-20T13:51:57.046Z,48.70
2023-04-20T13:54:23.792Z,49.30
2023-04-20T13:56:51.404Z,49.10
2023-04-20T13:59:18.207Z,49.00
2023-04-20T14:01:45.170Z,49.50
2023-04-20T14:04:12.296Z,48.00
2023-04-20T14:06:39.226Z,50.20
2023-04-20T14:09:06.134Z,49.00
2023-04-20T14:11:33.237Z,49.50
2023-04-20T14:14:00.080Z,49.30
2023-04-20T14:16:28.186Z,50.30
2023-04-20T14:18:54.955Z,48.90
2023-04-20T14:21:21.757Z,49.40
2023-04-20T14:23:53.235Z,50.40
2023-04-20T14:26:20.769Z,50.30
2023-04-20T14:28:47.569Z,51.60
2023-04-20T14:31:14.348Z,51.90
2023-04-20T14:33:41.728Z,52.70
2023-04-20T14:36:09.567Z,52.10
2023-04-20T14:38:36.393Z,52.00
2023-04-20T14:41:03.175Z,51.30
2023-04-20T14:43:29.952Z,50.90
2023-04-20T14:45:58.646Z,50.20
2023-04-20T14:48:30.322Z,50.40
2023-04-20T14:50:57.253Z,50.90
2023-04-20T14:53:24.238Z,51.60
2023-04-20T14:55:51.366Z,51.90
2023-04-20T14:58:20.044Z,50.30
2023-04-20T15:00:47.027Z,50.90
2023-04-20T15:03:14.078Z,51.40
2023-04-20T15:05:41.274Z,51.10
2023-04-20T15:08:08.224Z,51.70
2023-04-20T15:10:35.883Z,52.20
2023-04-20T15:13:04.651Z,52.50
2023-04-20T15:15:47.020Z,52.90
2023-04-20T15:18:18.869Z,52.60
2023-04-20T15:20:45.863Z,52.70
2023-04-20T15:23:12.803Z,52.00
2023-04-20T15:25:39.848Z,52.00
2023-04-20T15:28:06.927Z,52.90
2023-04-20T15:30:33.767Z,52.70
2023-04-20T15:33:04.362Z,53.20
2023-04-20T15:35:32.684Z,52.00
2023-04-20T15:37:59.440Z,53.50
2023-04-20T15:40:27.327Z,53.40
2023-04-20T15:42:57.496Z,51.90
2023-04-20T15:45:24.606Z,52.60
2023-04-20T15:47:51.627Z,53.40
2023-04-20T15:50:18.683Z,52.90
2023-04-20T15:52:45.881Z,52.70
2023-04-20T15:55:12.735Z,52.70
2023-04-20T15:57:39.633Z,51.80
2023-04-20T16:00:08.182Z,52.40
2023-04-20T16:02:35.922Z,52.60
2023-04-20T16:05:03.109Z,53.30
2023-04-20T16:07:29.979Z,53.00
2023-04-20T16:09:56.825Z,53.60
2023-04-20T16:12:23.688Z,53.90
2023-04-20T16:14:51.833Z,54.50
2023-04-20T16:17:20.422Z,56.10
2023-04-20T16:19:47.252Z,56.60
2023-04-20T16:22:14.193Z,58.10
2023-04-20T16:24:41.030Z,59.70
2023-04-20T16:27:07.874Z,62.80
2023-04-20T16:30:34.320Z,61.50
2023-04-20T16:33:02.248Z,61.60
2023-04-20T16:35:29.472Z,60.00
2023-04-20T16:37:56.405Z,60.70
2023-04-20T16:40:23.290Z,59.90
2023-04-20T16:42:50.031Z,59.90
2023-04-20T16:45:16.964Z,60.00
2023-04-20T16:47:43.756Z,59.90
2023-04-20T16:50:14.183Z,59.60
2023-04-20T16:52:41.040Z,60.40
2023-04-20T16:55:08.204Z,61.40
2023-04-20T16:58:23.333Z,60.30
2023-04-20T17:04:18.158Z,61.70
2023-04-20T17:13:12.674Z,62.60
2023-04-20T17:15:42.590Z,62.90
2023-04-20T17:18:09.488Z,63.40
2023-04-20T17:20:36.517Z,64.60
2023-04-20T17:23:03.328Z,64.20
2023-04-20T17:25:30.175Z,64.90
2023-04-20T17:27:57.000Z,65.60
2023-04-20T17:30:23.901Z,66.30
2023-04-20T17:32:52.885Z,66.70
2023-04-20T17:35:19.866Z,67.40
2023-04-20T17:37:46.592Z,68.50
2023-04-20T17:40:47.465Z,68.60
2023-04-20T17:43:14.406Z,69.50
2023-04-20T17:45:41.302Z,69.60
2023-04-20T17:48:08.980Z,70.30
2023-04-20T17:50:36.128Z,70.60
2023-04-20T17:53:06.712Z,70.60
2023-04-20T17:55:34.564Z,71.50
2023-04-20T17:58:01.813Z,71.30
2023-04-20T18:00:28.593Z,71.90
2023-04-20T18:02:55.669Z,72.30
2023-04-20T18:05:22.561Z,73.10
2023-04-20T18:07:51.023Z,73.60
2023-04-20T18:10:18.099Z,73.60
2023-04-20T18:12:45.056Z,73.80
2023-04-20T18:15:12.766Z,74.50
2023-04-20T18:17:39.843Z,74.80
2023-04-20T18:20:08.627Z,75.00
2023-04-20T18:31:35.642Z,76.80
2023-04-20T18:34:02.481Z,76.50
2023-04-20T18:36:30.132Z,76.70
2023-04-20T18:38:57.401Z,76.90
2023-04-20T18:41:25.687Z,77.30
2023-04-20T18:43:56.409Z,77.50
2023-04-20T18:46:23.337Z,77.60
2023-04-20T18:48:50.158Z,77.70
2023-04-20T18:51:34.122Z,78.20
2023-04-20T18:54:01.185Z,78.30
2023-04-20T18:56:27.941Z,78.60
2023-04-20T18:58:57.816Z,79.10
2023-04-20T19:05:03.578Z,79.50
2023-04-20T19:07:30.409Z,79.50
2023-04-20T19:09:57.302Z,79.30
2023-04-20T19:12:24.123Z,79.30
2023-04-20T19:14:50.864Z,79.90
2023-04-20T19:17:17.778Z,80.10
2023-04-20T19:19:44.562Z,80.30
2023-04-20T19:22:11.360Z,80.80
2023-04-20T19:24:38.139Z,80.60
2023-04-20T19:27:04.893Z,80.50
2023-04-20T19:29:32.766Z,80.80
2023-04-20T19:31:59.644Z,81.20
2023-04-20T19:34:27.101Z,81.30
2023-04-20T19:36:54.162Z,81.50
2023-04-20T19:39:21.026Z,81.60
2023-04-20T19:41:47.873Z,81.60
2023-04-20T19:44:14.809Z,82.10
2023-04-20T19:46:43.485Z,82.40
2023-04-20T19:49:10.334Z,82.60
2023-04-20T19:51:37.090Z,83.00
2023-04-20T19:54:04.859Z,82.70
2023-04-20T19:56:32.122Z,83.00
2023-04-20T19:58:59.002Z,83.80
2023-04-20T20:01:25.954Z,83.70
2023-04-20T20:03:53.216Z,84.10
2023-04-20T20:06:21.620Z,84.00
2023-04-20T20:08:48.591Z,84.00
2023-04-20T20:11:15.378Z,84.40
2023-04-20T20:13:42.175Z,84.50
2023-04-20T20:16:10.313Z,84.80
2023-04-20T20:18:37.272Z,85.20
2023-04-20T20:21:04.138Z,85.40
2023-04-20T20:23:30.875Z,85.40
2023-04-20T20:25:57.676Z,85.80
2023-04-20T20:28:24.441Z,85.70
2023-04-20T20:30:51.180Z,86.00
2023-04-20T20:33:17.897Z,86.00
2023-04-20T20:35:45.098Z,86.10
2023-04-20T20:38:12.120Z,86.50
2023-04-20T20:40:39.800Z,86.70
2023-04-20T20:43:06.684Z,87.10
2023-04-20T20:45:33.581Z,87.10
2023-04-20T20:48:00.876Z,87.40
2023-04-20T20:50:27.926Z,87.40
2023-04-20T20:52:54.827Z,87.50
2023-04-20T20:55:21.867Z,87.50
2023-04-20T20:57:48.661Z,88.10
2023-04-20T21:00:16.155Z,88.50
2023-04-20T21:02:43.131Z,88.30
2023-04-20T21:05:10.435Z,88.70
2023-04-20T21:07:37.292Z,89.00
2023-04-20T21:10:04.372Z,89.10
2023-04-20T21:12:31.160Z,89.20
2023-04-20T21:14:58.024Z,89.50
2023-04-20T21:18:16.432Z,89.40
2023-04-20T21:20:43.248Z,89.40
2023-04-20T21:23:10.158Z,89.80
2023-04-20T21:25:36.958Z,89.70
2023-04-20T21:28:03.881Z,89.70
2023-04-20T21:30:30.792Z,89.80
2023-04-20T21:32:57.710Z,90.00
2023-04-20T21:35:24.637Z,90.00
2023-04-20T21:37:51.481Z,90.10
2023-04-20T21:40:18.392Z,90.10
2023-04-20T21:42:48.349Z,90.00
2023-04-20T21:45:15.293Z,90.10
2023-04-20T21:47:42.184Z,90.50
2023-04-20T21:50:09.596Z,90.30
2023-04-20T21:52:36.500Z,90.50
2023-04-20T21:55:03.400Z,90.30
2023-04-20T21:57:30.198Z,90.50
2023-04-20T21:59:57.046Z,90.40
2023-04-20T22:02:23.937Z,90.50
2023-04-20T22:04:51.090Z,90.30
2023-04-20T22:07:18.688Z,90.40
2023-04-20T22:09:45.521Z,90.50
2023-04-20T22:12:12.383Z,90.40
2023-04-20T22:14:39.241Z,90.50
2023-04-20T22:17:06.262Z,90.20
2023-04-20T22:19:33.514Z,90.20
2023-04-20T22:22:00.417Z,90.20
2023-04-20T22:24:27.281Z,90.40
2023-04-20T22:26:54.333Z,90.30
2023-04-20T22:29:21.471Z,90.50
2023-04-20T22:31:48.656Z,90.40
2023-04-20T22:34:15.978Z,90.50
2023-04-20T22:36:42.840Z,90.50
2023-04-20T22:39:09.953Z,90.50
2023-04-20T22:41:36.861Z,90.40
2023-04-20T22:44:03.781Z,90.60
2023-04-20T22:46:30.726Z,90.20
2023-04-20T22:48:57.576Z,90.40
2023-04-20T22:51:24.661Z,90.40
2023-04-20T22:53:51.454Z,90.40
2023-04-20T22:56:18.382Z,90.20
2023-04-20T22:58:45.127Z,90.30
2023-04-20T23:01:11.902Z,90.50
2023-04-20T23:03:38.790Z,90.50
2023-04-20T23:06:06.983Z,90.50
2023-04-20T23:08:34.535Z,90.40
2023-04-20T23:11:01.352Z,90.70
2023-04-20T23:13:28.147Z,90.60
2023-04-20T23:15:54.980Z,90.50
2023-04-20T23:18:21.739Z,90.50
2023-04-20T23:20:48.487Z,90.20
2023-04-20T23:23:15.260Z,90.10
2023-04-20T23:25:42.100Z,90.10
2023-04-20T23:28:08.869Z,90.00
2023-04-20T23:30:35.803Z,90.20
2023-04-20T23:33:02.678Z,90.10
2023-04-20T23:35:29.601Z,90.20
2023-04-20T23:37:58.027Z,90.20
2023-04-20T23:40:25.366Z,90.30
2023-04-20T23:42:52.133Z,90.40
2023-04-20T23:45:18.901Z,90.30
2023-04-20T23:47:45.765Z,90.30
2023-04-20T23:50:12.773Z,90.40
2023-04-20T23:52:40.977Z,90.40
2023-04-20T23:55:08.829Z,90.60
2023-04-20T23:57:35.783Z,90.70
